Observation data for Graham on 05/16/2018      Previous  Date  Next       Current Mesonet Observations  Soil Data  Daily Summary Page  Observations in Plain Language
KGHS 160500Z 06008KT 21/13 A3001 RMK A01 T02070128  RH  063%=      5-min Rain = 0
KGHS 160505Z 07007KT 21/13 A30 RMK A01 T02070128  RH  063%=      5-min Rain = 0
KGHS 160510Z 06008KT 21/13 A30 RMK A01 T02060126  RH  062%=      5-min Rain = 0
KGHS 160515Z 05011G16KT 20/12 A30 RMK A01 T02030124  RH  063%=      5-min Rain = 0
KGHS 160520Z 06010KT 20/12 A30 RMK A01 T01990123  RH  064%=      5-min Rain = 0
KGHS 160525Z 07012KT 20/12 A3001 RMK A01 T01970123  RH  064%=      5-min Rain = 0
KGHS 160530Z 08013G18KT 20/12 A3001 RMK A01 T01990121  RH  063%=      5-min Rain = 0
KGHS 160535Z 09012G17KT 20/12 A3001 RMK A01 T02010122  RH  063%=      5-min Rain = 0
KGHS 160540Z 07012KT 20/12 A3001 RMK A01 T02010124  RH  064%=      5-min Rain = 0
KGHS 160545Z 07014G19KT 20/13 A3001 RMK A01 T02000126  RH  065%=      5-min Rain = 0
KGHS 160550Z 08013G18KT 20/13 A3001 RMK A01 T01990129  RH  066%=      5-min Rain = 0
KGHS 160555Z 08013KT 20/13 A3001 RMK A01 T01990131  RH  068%=      5-min Rain = 0
KGHS 160600Z 07012KT 20/13 A3001 RMK A01 T01980133  RH  069%=      5-min Rain = 0
KGHS 160605Z 08013KT 20/13 A3001 RMK A01 T01960133  RH  070%=      5-min Rain = 0
KGHS 160610Z 08013KT 20/13 A3001 RMK A01 T01950134  RH  071%=      5-min Rain = 0
KGHS 160615Z 09011G16KT 20/14 A3001 RMK A01 T01950135  RH  071%=      5-min Rain = 0
KGHS 160620Z 10009G14KT 19/14 A3001 RMK A01 T01940136  RH  072%=      5-min Rain = 0
KGHS 160625Z 10011KT 19/14 A3001 RMK A01 T01940138  RH  073%=      5-min Rain = 0
KGHS 160630Z 10012G17KT 20/14 A3001 RMK A01 T01950139  RH  073%=      5-min Rain = 0
KGHS 160635Z 10012G17KT 20/14 A30 RMK A01 T01960140  RH  073%=      5-min Rain = 0
KGHS 160640Z 10012G17KT 20/14 A30 RMK A01 T01960140  RH  073%=      5-min Rain = 0
KGHS 160645Z 10010KT 20/14 A3001 RMK A01 T01950140  RH  073%=      5-min Rain = 0
KGHS 160650Z 11010KT 20/14 A30 RMK A01 T01950140  RH  074%=      5-min Rain = 0
KGHS 160655Z 11011KT 20/14 A2999 RMK A01 T01950140  RH  073%=      5-min Rain = 0
KGHS 160700Z 11010KT 20/14 A2999 RMK A01 T01950140  RH  073%=      5-min Rain = 0
KGHS 160705Z 10010KT 19/14 A2999 RMK A01 T01940140  RH  074%=      5-min Rain = 0
KGHS 160710Z 11008KT 19/14 A2999 RMK A01 T01930140  RH  074%=      5-min Rain = 0
KGHS 160715Z 14008KT 19/14 A2999 RMK A01 T01930139  RH  074%=      5-min Rain = 0
KGHS 160720Z 15009KT 19/14 A30 RMK A01 T01910140  RH  075%=      5-min Rain = 0
KGHS 160725Z 14008KT 19/14 A30 RMK A01 T01890140  RH  076%=      5-min Rain = 0
KGHS 160730Z 14006KT 19/14 A30 RMK A01 T01870140  RH  077%=      5-min Rain = 0
KGHS 160735Z 14007KT 19/14 A30 RMK A01 T01850140  RH  078%=      5-min Rain = 0
KGHS 160740Z 14008KT 18/14 A2999 RMK A01 T01840139  RH  079%=      5-min Rain = 0
KGHS 160745Z 13009KT 18/14 A2999 RMK A01 T01830140  RH  079%=      5-min Rain = 0
KGHS 160750Z 12008KT 18/14 A2999 RMK A01 T01820139  RH  080%=      5-min Rain = 0
KGHS 160755Z 13008KT 18/14 A2999 RMK A01 T01820140  RH  080%=      5-min Rain = 0
KGHS 160800Z 13008KT 18/14 A2999 RMK A01 T01830141  RH  080%=      5-min Rain = 0
KGHS 160805Z 13010KT 18/14 A2999 RMK A01 T01840141  RH  080%=      5-min Rain = 0
KGHS 160810Z 12011KT 19/14 A2998 RMK A01 T01850142  RH  079%=      5-min Rain = 0
KGHS 160815Z 13012KT 19/14 A2998 RMK A01 T01860142  RH  079%=      5-min Rain = 0
KGHS 160820Z 14012KT 19/14 A2998 RMK A01 T01860142  RH  079%=      5-min Rain = 0
KGHS 160825Z 15012KT 19/14 A2998 RMK A01 T01850142  RH  079%=      5-min Rain = 0
KGHS 160830Z 14012KT 18/14 A2998 RMK A01 T01830142  RH  080%=      5-min Rain = 0
KGHS 160835Z 14010KT 18/14 A2998 RMK A01 T01810142  RH  081%=      5-min Rain = 0
KGHS 160840Z 15010KT 18/14 A2998 RMK A01 T01800142  RH  082%=      5-min Rain = 0
KGHS 160845Z 15010KT 18/14 A2998 RMK A01 T01790142  RH  082%=      5-min Rain = 0
KGHS 160850Z 15010G15KT 18/14 A2998 RMK A01 T01790142  RH  083%=      5-min Rain = 0
KGHS 160855Z 15011KT 18/14 A2998 RMK A01 T01780143  RH  084%=      5-min Rain = 0
KGHS 160900Z 15011KT 18/14 A2998 RMK A01 T01760144  RH  085%=      5-min Rain = 0
KGHS 160905Z 14010KT 18/14 A2998 RMK A01 T01750144  RH  086%=      5-min Rain = 0
KGHS 160910Z 14009KT 17/14 A2998 RMK A01 T01740144  RH  086%=      5-min Rain = 0
KGHS 160915Z 15010KT 17/14 A2997 RMK A01 T01730143  RH  086%=      5-min Rain = 0
KGHS 160920Z 16009KT 17/14 A2997 RMK A01 T01720143  RH  087%=      5-min Rain = 0
KGHS 160925Z 15009KT 17/14 A2997 RMK A01 T01710142  RH  087%=      5-min Rain = 0
KGHS 160930Z 16010KT 17/14 A2997 RMK A01 T01700141  RH  087%=      5-min Rain = 0
KGHS 160935Z 15010KT 17/14 A2997 RMK A01 T01700140  RH  086%=      5-min Rain = 0
KGHS 160940Z 15010KT 17/14 A2997 RMK A01 T01700139  RH  086%=      5-min Rain = 0
KGHS 160945Z 15011G16KT 17/14 A2998 RMK A01 T01710138  RH  084%=      5-min Rain = 0
KGHS 160950Z 13009G17KT 17/14 A2998 RMK A01 T01740137  RH  083%=      5-min Rain = 0
KGHS 160955Z 09008KT 17/14 A30 RMK A01 T01730138  RH  083%=      5-min Rain = 0
KGHS 161000Z 09007KT 17/14 A30 RMK A01 T01720139  RH  084%=      5-min Rain = 0
KGHS 161005Z 13007KT 17/14 A30 RMK A01 T01730138  RH  084%=      5-min Rain = 0
KGHS 161010Z 15010KT 17/14 A30 RMK A01 T01730138  RH  083%=      5-min Rain = 0
KGHS 161015Z 15009KT 17/14 A30 RMK A01 T01730138  RH  083%=      5-min Rain = 0
KGHS 161020Z 14009KT 17/14 A30 RMK A01 T01720138  RH  084%=      5-min Rain = 0
KGHS 161025Z 12008KT 17/14 A3001 RMK A01 T01710138  RH  084%=      5-min Rain = 0
KGHS 161030Z 11008KT 17/14 A3001 RMK A01 T01710139  RH  085%=      5-min Rain = 0
KGHS 161035Z 10007KT 17/14 A3001 RMK A01 T01710139  RH  085%=      5-min Rain = 0
KGHS 161040Z 12009KT 17/14 A3001 RMK A01 T01700139  RH  085%=      5-min Rain = 0
KGHS 161045Z 12009KT 17/14 A3001 RMK A01 T01710139  RH  085%=      5-min Rain = 0
KGHS 161050Z 12009KT 17/14 A30 RMK A01 T01700138  RH  085%=      5-min Rain = 0
KGHS 161055Z 14008KT 17/14 A30 RMK A01 T01690138  RH  085%=      5-min Rain = 0
KGHS 161100Z 15008KT 17/14 A30 RMK A01 T01680138  RH  086%=      5-min Rain = 0
KGHS 161105Z 15009KT 17/14 A30 RMK A01 T01670138  RH  086%=      5-min Rain = 0
KGHS 161110Z 15008KT 17/14 A30 RMK A01 T01670138  RH  087%=      5-min Rain = 0
KGHS 161115Z 15008KT 17/14 A30 RMK A01 T01660138  RH  087%=      5-min Rain = 0
KGHS 161120Z 15008KT 17/14 A30 RMK A01 T01650137  RH  087%=      5-min Rain = 0
KGHS 161125Z 16008KT 16/14 A30 RMK A01 T01640137  RH  088%=      5-min Rain = 0
KGHS 161130Z 16007KT 16/14 A2999 RMK A01 T01630137  RH  088%=      5-min Rain = 0
KGHS 161135Z 16007KT 16/14 A2999 RMK A01 T01620137  RH  089%=      5-min Rain = 0
KGHS 161140Z 14007KT 16/14 A2999 RMK A01 T01610136  RH  089%=      5-min Rain = 0
KGHS 161145Z 14008KT 16/14 A2999 RMK A01 T01600136  RH  089%=      5-min Rain = 0
KGHS 161150Z 13008KT 16/14 A2999 RMK A01 T01610136  RH  089%=      5-min Rain = 0
KGHS 161155Z 14008KT 16/14 A2999 RMK A01 T01590136  RH  090%=      5-min Rain = 0
KGHS 161200Z 14007KT 16/14 A30 RMK A01 T01590136  RH  090%=      5-min Rain = 0
KGHS 161205Z 11006KT 16/14 A30 RMK A01 T01580136  RH  090%=      5-min Rain = 0
KGHS 161210Z 07006KT 16/14 A3001 RMK A01 T01570136  RH  091%=      5-min Rain = 0
KGHS 161215Z 09007KT 16/14 A3001 RMK A01 T01580137  RH  091%=      5-min Rain = 0
KGHS 161220Z 11008KT 16/14 A3001 RMK A01 T01610138  RH  090%=      5-min Rain = 0
KGHS 161225Z 13007KT 16/14 A3001 RMK A01 T01620138  RH  089%=      5-min Rain = 0
KGHS 161230Z 09006KT 16/14 A3002 RMK A01 T01630138  RH  089%=      5-min Rain = 0
KGHS 161235Z 04008KT 16/14 A3003 RMK A01 T01630139  RH  089%=      5-min Rain = 0
KGHS 161240Z 03010KT 16/14 A3003 RMK A01 T01640140  RH  090%=      5-min Rain = 0
KGHS 161245Z 07006KT 16/14 A3003 RMK A01 T01640140  RH  089%=      5-min Rain = 0
KGHS 161250Z 11007KT 17/14 A3003 RMK A01 T01670139  RH  087%=      5-min Rain = 0
KGHS 161255Z 11005KT 17/14 A3004 RMK A01 T01680139  RH  087%=      5-min Rain = 0
KGHS 161300Z 07007KT 17/14 A3005 RMK A01 T01690140  RH  086%=      5-min Rain = 0
KGHS 161305Z 07008KT 17/14 A3005 RMK A01 T01710139  RH  085%=      5-min Rain = 0
KGHS 161310Z 10006KT 17/14 A3005 RMK A01 T01740139  RH  083%=      5-min Rain = 0
KGHS 161315Z 10007G12KT 18/14 A3006 RMK A01 T01750139  RH  083%=      5-min Rain = 0
KGHS 161320Z 07008KT 18/14 A3006 RMK A01 T01770138  RH  081%=      5-min Rain = 0
KGHS 161325Z 06008KT 18/14 A3007 RMK A01 T01790139  RH  081%=      5-min Rain = 0
KGHS 161330Z 06007KT 18/14 A3007 RMK A01 T01800140  RH  081%=      5-min Rain = 0
KGHS 161335Z 08007KT 18/14 A3007 RMK A01 T01800141  RH  081%=      5-min Rain = 0
KGHS 161340Z 07007KT 18/14 A3008 RMK A01 T01830140  RH  079%=      5-min Rain = 0
KGHS 161345Z 05005KT 19/14 A3008 RMK A01 T01850139  RH  078%=      5-min Rain = 0
KGHS 161350Z 06005KT 19/14 A3009 RMK A01 T01850139  RH  078%=      5-min Rain = 0
KGHS 161355Z 06004KT 19/14 A3008 RMK A01 T01860140  RH  078%=      5-min Rain = 0
KGHS 161400Z 11004KT 19/14 A3009 RMK A01 T01870139  RH  077%=      5-min Rain = 0
KGHS 161405Z 12007KT 19/14 A3009 RMK A01 T01880137  RH  075%=      5-min Rain = 0
KGHS 161410Z 12006KT 19/14 A3009 RMK A01 T01890135  RH  074%=      5-min Rain = 0
KGHS 161415Z 13007KT 19/13 A3009 RMK A01 T01910134  RH  072%=      5-min Rain = 0
KGHS 161420Z 12008KT 19/13 A3009 RMK A01 T01930133  RH  071%=      5-min Rain = 0
KGHS 161425Z 13008KT 20/13 A3009 RMK A01 T01950132  RH  070%=      5-min Rain = 0
KGHS 161430Z 12007KT 20/14 A3009 RMK A01 T02020135  RH  068%=      5-min Rain = 0
KGHS 161435Z 12007KT 20/14 A3009 RMK A01 T02020135  RH  068%=      5-min Rain = 0
KGHS 161440Z 12007KT 20/14 A3009 RMK A01 T02020136  RH  069%=      5-min Rain = 0
KGHS 161445Z 13008KT 20/14 A3009 RMK A01 T02040135  RH  067%=      5-min Rain = 0
KGHS 161450Z 14009KT 21/13 A3009 RMK A01 T02060134  RH  066%=      5-min Rain = 0
KGHS 161455Z 14008G13KT 21/14 A3009 RMK A01 T02080136  RH  066%=      5-min Rain = 0
KGHS 161500Z 15007KT 21/14 A3009 RMK A01 T02110138  RH  066%=      5-min Rain = 0
KGHS 161505Z 12006KT 21/14 A3009 RMK A01 T02090138  RH  066%=      5-min Rain = 0
KGHS 161510Z 13006KT 21/14 A3009 RMK A01 T02110138  RH  066%=      5-min Rain = 0
KGHS 161515Z 14007KT 21/14 A3008 RMK A01 T02120138  RH  066%=      5-min Rain = 0
KGHS 161520Z 15008KT 21/14 A3008 RMK A01 T02140140  RH  065%=      5-min Rain = 0
KGHS 161525Z 14009KT 22/14 A3008 RMK A01 T02190143  RH  065%=      5-min Rain = 0
KGHS 161530Z 15010KT 22/14 A3008 RMK A01 T02210140  RH  063%=      5-min Rain = 0
KGHS 161535Z 15010KT 22/14 A3007 RMK A01 T02220139  RH  062%=      5-min Rain = 0
KGHS 161540Z 16009KT 23/14 A3007 RMK A01 T02250140  RH  061%=      5-min Rain = 0
KGHS 161545Z 15009KT 23/14 A3007 RMK A01 T02260139  RH  060%=      5-min Rain = 0
KGHS 161550Z 16008KT 23/14 A3007 RMK A01 T02290139  RH  059%=      5-min Rain = 0
KGHS 161555Z 15011KT 23/14 A3006 RMK A01 T02330135  RH  056%=      5-min Rain = 0
KGHS 161600Z 17011G16KT 23/13 A3006 RMK A01 T02340133  RH  055%=      5-min Rain = 0
KGHS 161605Z 15010KT 24/13 A3006 RMK A01 T02370131  RH  054%=      5-min Rain = 0
KGHS 161610Z 15010G15KT 24/13 A3006 RMK A01 T02400130  RH  052%=      5-min Rain = 0
KGHS 161615Z 14011KT 24/13 A3006 RMK A01 T02440128  RH  050%=      5-min Rain = 0
KGHS 161620Z 14011G18KT 24/13 A3006 RMK A01 T02440127  RH  050%=      5-min Rain = 0
KGHS 161625Z 14011G16KT 25/13 A3006 RMK A01 T02470125  RH  048%=      5-min Rain = 0
KGHS 161630Z 13011G17KT 25/12 A3006 RMK A01 T02490124  RH  048%=      5-min Rain = 0
KGHS 161635Z 15014KT 25/12 A3006 RMK A01 T02530122  RH  046%=      5-min Rain = 0
KGHS 161640Z 14010G19KT 26/12 A3006 RMK A01 T02570121  RH  045%=      5-min Rain = 0
KGHS 161645Z 14014G21KT 26/11 A3005 RMK A01 T02570112  RH  042%=      5-min Rain = 0
KGHS 161650Z 13014G20KT 26/11 A3005 RMK A01 T02590108  RH  040%=      5-min Rain = 0
KGHS 161655Z 13014G19KT 26/11 A3005 RMK A01 T02600105  RH  039%=      5-min Rain = 0
KGHS 161700Z 13014KT 26/10 A3005 RMK A01 T02630104  RH  038%=      5-min Rain = 0
KGHS 161705Z 14013G18KT 27/11 A3005 RMK A01 T02650109  RH  039%=      5-min Rain = 0
KGHS 161710Z 12012G17KT 27/11 A3005 RMK A01 T02650107  RH  039%=      5-min Rain = 0
KGHS 161715Z 14009G16KT 27/11 A3005 RMK A01 T02660107  RH  038%=      5-min Rain = 0
KGHS 161720Z 13012G17KT 27/10 A3005 RMK A01 T02690102  RH  036%=      5-min Rain = 0
KGHS 161725Z 14011G17KT 27/11 A3005 RMK A01 T02690106  RH  037%=      5-min Rain = 0
KGHS 161730Z 14011G16KT 27/11 A3005 RMK A01 T02720105  RH  036%=      5-min Rain = 0
KGHS 161735Z 15013G18KT 28/10 A3004 RMK A01 T02760100  RH  034%=      5-min Rain = 0
KGHS 161740Z 13013G18KT 28/10 A3004 RMK A01 T02770096  RH  033%=      5-min Rain = 0
KGHS 161745Z 13012KT 28/10 A3004 RMK A01 T02750097  RH  034%=      5-min Rain = 0
KGHS 161750Z 15013G18KT 28/09 A3004 RMK A01 T02800093  RH  032%=      5-min Rain = 0
KGHS 161755Z 12013G18KT 28/09 A3004 RMK A01 T02780088  RH  031%=      5-min Rain = 0
KGHS 161800Z 14015G22KT 28/09 A3004 RMK A01 T02830087  RH  030%=      5-min Rain = 0
KGHS 161805Z 14016KT 29/09 A3004 RMK A01 T02860086  RH  029%=      5-min Rain = 0
KGHS 161810Z 13013G20KT 29/09 A3003 RMK A01 T02850087  RH  030%=      5-min Rain = 0
KGHS 161815Z 12013G18KT 29/09 A3003 RMK A01 T02870086  RH  029%=      5-min Rain = 0
KGHS 161820Z 13013G22KT 29/09 A3003 RMK A01 T02870085  RH  029%=      5-min Rain = 0
KGHS 161825Z 14015G21KT 29/08 A3002 RMK A01 T02900083  RH  028%=      5-min Rain = 0
KGHS 161830Z 12015KT 29/08 A3002 RMK A01 T02900078  RH  027%=      5-min Rain = 0
KGHS 161835Z 14013G20KT 29/08 A3002 RMK A01 T02900079  RH  027%=      5-min Rain = 0
KGHS 161840Z 12013G22KT 29/08 A3001 RMK A01 T02920076  RH  026%=      5-min Rain = 0
KGHS 161845Z 12015G24KT 29/08 A3001 RMK A01 T02930075  RH  026%=      5-min Rain = 0
KGHS 161850Z 12011G17KT 30/08 A3001 RMK A01 T02980075  RH  025%=      5-min Rain = 0
KGHS 161855Z 12016G24KT 30/08 A30 RMK A01 T02970076  RH  026%=      5-min Rain = 0
KGHS 161900Z 14017G27KT 30/08 A30 RMK A01 T02970080  RH  026%=      5-min Rain = 0
KGHS 161905Z 13016G24KT 30/08 A2999 RMK A01 T02990076  RH  026%=      5-min Rain = 0
KGHS 161910Z 16017G25KT 30/08 A30 RMK A01 T03020082  RH  026%=      5-min Rain = 0
KGHS 161915Z 13013G19KT 31/08 A30 RMK A01 T03050081  RH  025%=      5-min Rain = 0
KGHS 161920Z 14016G25KT 30/08 A30 RMK A01 T03040084  RH  026%=      5-min Rain = 0
KGHS 161925Z 13014G20KT 30/09 A30 RMK A01 T03030085  RH  027%=      5-min Rain = 0
KGHS 161930Z 15017G23KT 30/09 A2999 RMK A01 T03010090  RH  028%=      5-min Rain = 0
KGHS 161935Z 15016G24KT 30/10 A2999 RMK A01 T03030095  RH  028%=      5-min Rain = 0
KGHS 161940Z 14013G20KT 30/10 A2999 RMK A01 T03040100  RH  029%=      5-min Rain = 0
KGHS 161945Z 14014G22KT 30/10 A2999 RMK A01 T03030103  RH  030%=      5-min Rain = 0
KGHS 161950Z 15017G23KT 31/11 A2999 RMK A01 T03060105  RH  030%=      5-min Rain = 0
KGHS 161955Z 13014G21KT 31/11 A2999 RMK A01 T03050106  RH  030%=      5-min Rain = 0
KGHS 162000Z 16011G16KT 31/11 A2999 RMK A01 T03050108  RH  031%=      5-min Rain = 0
KGHS 162005Z 16016G21KT 31/11 A2998 RMK A01 T03050111  RH  031%=      5-min Rain = 0
KGHS 162010Z 16010G16KT 30/11 A2998 RMK A01 T03020111  RH  032%=      5-min Rain = 0
KGHS 162015Z 16013G24KT 31/11 A2998 RMK A01 T03050112  RH  032%=      5-min Rain = 0
KGHS 162020Z 16013G22KT 30/11 A2998 RMK A01 T03020112  RH  032%=      5-min Rain = 0
KGHS 162025Z 15015KT 30/11 A2997 RMK A01 T03030113  RH  032%=      5-min Rain = 0
KGHS 162030Z 17013G18KT 31/11 A2997 RMK A01 T03050109  RH  031%=      5-min Rain = 0
KGHS 162035Z 17012G19KT 31/11 A2997 RMK A01 T03050110  RH  031%=      5-min Rain = 0
KGHS 162040Z 16012G17KT 30/11 A2997 RMK A01 T03040110  RH  031%=      5-min Rain = 0
KGHS 162045Z 15013G19KT 31/11 A2997 RMK A01 T03060112  RH  031%=      5-min Rain = 0
KGHS 162050Z 15011G16KT 31/11 A2997 RMK A01 T03090113  RH  031%=      5-min Rain = 0
KGHS 162055Z 17013G18KT 31/11 A2997 RMK A01 T03090112  RH  031%=      5-min Rain = 0
KGHS 162100Z 16011G18KT 31/11 A2996 RMK A01 T03100112  RH  031%=      5-min Rain = 0
KGHS 162105Z 16014G19KT 31/11 A2996 RMK A01 T03110112  RH  031%=      5-min Rain = 0
KGHS 162110Z 16007G14KT 31/11 A2996 RMK A01 T03090110  RH  031%=      5-min Rain = 0
KGHS 162115Z 15009G14KT 31/11 A2996 RMK A01 T03100105  RH  029%=      5-min Rain = 0
KGHS 162120Z 18012G19KT 31/10 A2995 RMK A01 T03140101  RH  028%=      5-min Rain = 0
KGHS 162125Z 19009KT 32/10 A2995 RMK A01 T03190100  RH  027%=      5-min Rain = 0
KGHS 162130Z 15008G15KT 32/10 A2995 RMK A01 T03210104  RH  027%=      5-min Rain = 0
KGHS 162135Z 14010G16KT 32/10 A2995 RMK A01 T03190103  RH  027%=      5-min Rain = 0
KGHS 162140Z 14009G15KT 32/10 A2995 RMK A01 T03160101  RH  028%=      5-min Rain = 0
KGHS 162145Z 17011G16KT 32/10 A2994 RMK A01 T03180099  RH  027%=      5-min Rain = 0
KGHS 162150Z 20011G16KT 32/10 A2994 RMK A01 T03180099  RH  027%=      5-min Rain = 0
KGHS 162155Z 18004G9KT 32/10 A2994 RMK A01 T03170099  RH  027%=      5-min Rain = 0
KGHS 162200Z 15008G15KT 32/10 A2994 RMK A01 T03210101  RH  027%=      5-min Rain = 0
KGHS 162205Z 16008G13KT 32/10 A2993 RMK A01 T03210102  RH  027%=      5-min Rain = 0
KGHS 162210Z 14009G15KT 32/10 A2993 RMK A01 T03210101  RH  027%=      5-min Rain = 0
KGHS 162215Z 15012G17KT 32/10 A2993 RMK A01 T03200101  RH  027%=      5-min Rain = 0
KGHS 162220Z 13012G19KT 32/10 A2993 RMK A01 T03200103  RH  027%=      5-min Rain = 0
KGHS 162225Z 12011G16KT 32/10 A2993 RMK A01 T03180103  RH  028%=      5-min Rain = 0
KGHS 162230Z 10010KT 32/10 A2992 RMK A01 T03180104  RH  028%=      5-min Rain = 0
KGHS 162235Z 12011KT 32/10 A2992 RMK A01 T03180104  RH  028%=      5-min Rain = 0
KGHS 162240Z 12013KT 32/10 A2992 RMK A01 T03190103  RH  027%=      5-min Rain = 0
KGHS 162245Z 13013G18KT 32/10 A2992 RMK A01 T03160103  RH  028%=      5-min Rain = 0
KGHS 162250Z 14013G19KT 32/10 A2992 RMK A01 T03190103  RH  027%=      5-min Rain = 0
KGHS 162255Z 10010G15KT 32/10 A2992 RMK A01 T03180103  RH  027%=      5-min Rain = 0
KGHS 162300Z 11011G16KT 32/10 A2992 RMK A01 T03180103  RH  028%=      5-min Rain = 0
KGHS 162305Z 09010G16KT 31/10 A2992 RMK A01 T03140102  RH  028%=      5-min Rain = 0
KGHS 162310Z 12012G17KT 32/10 A2991 RMK A01 T03150101  RH  027%=      5-min Rain = 0
KGHS 162315Z 14011G16KT 32/10 A2991 RMK A01 T03150099  RH  027%=      5-min Rain = 0
KGHS 162320Z 11010KT 32/10 A2991 RMK A01 T03160098  RH  027%=      5-min Rain = 0
KGHS 162325Z 12011G17KT 32/10 A2991 RMK A01 T03150099  RH  027%=      5-min Rain = 0
KGHS 162330Z 11012G17KT 31/10 A2991 RMK A01 T03140097  RH  027%=      5-min Rain = 0
KGHS 162335Z 12012KT 31/10 A2991 RMK A01 T03140096  RH  027%=      5-min Rain = 0
KGHS 162340Z 13014KT 32/10 A2991 RMK A01 T03150096  RH  027%=      5-min Rain = 0
KGHS 162345Z 12014G19KT 31/10 A2991 RMK A01 T03140096  RH  027%=      5-min Rain = 0
KGHS 162350Z 12011KT 31/10 A2991 RMK A01 T03120095  RH  027%=      5-min Rain = 0
KGHS 162355Z 09011G16KT 31/10 A2991 RMK A01 T03130096  RH  027%=      5-min Rain = 0
KGHS 170000Z 10010KT 31/10 A2991 RMK A01 T03130095  RH  027%=      5-min Rain = 0
KGHS 170005Z 13012KT 31/09 A299 RMK A01 T03130094  RH  027%=      5-min Rain = 0
KGHS 170010Z 11011G16KT 31/10 A299 RMK A01 T03120095  RH  027%=      5-min Rain = 0
KGHS 170015Z 11010G15KT 31/10 A2991 RMK A01 T03130095  RH  027%=      5-min Rain = 0
KGHS 170020Z 12012KT 31/09 A299 RMK A01 T03110094  RH  027%=      5-min Rain = 0
KGHS 170025Z 11010KT 31/10 A299 RMK A01 T03100095  RH  027%=      5-min Rain = 0
KGHS 170030Z 10018G23KT 31/10 A299 RMK A01 T03080099  RH  028%=      5-min Rain = 0
KGHS 170035Z 10015G20KT 30/10 A299 RMK A01 T03030102  RH  030%=      5-min Rain = 0
KGHS 170040Z 09017G22KT 30/10 A299 RMK A01 T03010102  RH  030%=      5-min Rain = 0
KGHS 170045Z 09015G22KT 30/10 A299 RMK A01 T02990103  RH  031%=      5-min Rain = 0
KGHS 170050Z 11014KT 30/10 A299 RMK A01 T02980103  RH  031%=      5-min Rain = 0
KGHS 170055Z 10015G22KT 30/10 A299 RMK A01 T02960104  RH  031%=      5-min Rain = 0
KGHS 170100Z 10015G20KT 29/10 A2991 RMK A01 T02940104  RH  032%=      5-min Rain = 0
KGHS 170105Z 11013G18KT 29/10 A2991 RMK A01 T02930104  RH  032%=      5-min Rain = 0
KGHS 170110Z 10017KT 29/10 A2991 RMK A01 T02920104  RH  032%=      5-min Rain = 0
KGHS 170115Z 10016G22KT 29/11 A2991 RMK A01 T02900105  RH  033%=      5-min Rain = 0
KGHS 170120Z 10017G23KT 29/11 A2991 RMK A01 T02880106  RH  033%=      5-min Rain = 0
KGHS 170125Z 10016G23KT 29/11 A2991 RMK A01 T02860107  RH  034%=      5-min Rain = 0
KGHS 170130Z 10016G21KT 28/11 A2991 RMK A01 T02840107  RH  034%=      5-min Rain = 0
KGHS 170135Z 11014G21KT 28/11 A2992 RMK A01 T02820108  RH  035%=      5-min Rain = 0
KGHS 170140Z 10014G19KT 28/11 A2992 RMK A01 T02810109  RH  036%=      5-min Rain = 0
KGHS 170145Z 10012KT 28/11 A2992 RMK A01 T02790110  RH  036%=      5-min Rain = 0
KGHS 170150Z 10013G19KT 28/11 A2992 RMK A01 T02770110  RH  037%=      5-min Rain = 0
KGHS 170155Z 09015G21KT 28/11 A2992 RMK A01 T02750111  RH  037%=      5-min Rain = 0
KGHS 170200Z 09014G19KT 27/11 A2993 RMK A01 T02730111  RH  038%=      5-min Rain = 0
KGHS 170205Z 10015KT 27/11 A2992 RMK A01 T02720111  RH  038%=      5-min Rain = 0
KGHS 170210Z 10012G17KT 27/11 A2992 RMK A01 T02710111  RH  038%=      5-min Rain = 0
KGHS 170215Z 10012G17KT 27/11 A2993 RMK A01 T02700111  RH  039%=      5-min Rain = 0
KGHS 170220Z 10014KT 27/11 A2993 RMK A01 T02700112  RH  039%=      5-min Rain = 0
KGHS 170225Z 10014KT 27/11 A2993 RMK A01 T02690112  RH  039%=      5-min Rain = 0
KGHS 170230Z 10012KT 27/11 A2993 RMK A01 T02680113  RH  039%=      5-min Rain = 0
KGHS 170235Z 10013G18KT 27/11 A2994 RMK A01 T02680114  RH  040%=      5-min Rain = 0
KGHS 170240Z 10013KT 27/12 A2994 RMK A01 T02680115  RH  040%=      5-min Rain = 0
KGHS 170245Z 10013G18KT 27/12 A2994 RMK A01 T02670116  RH  040%=      5-min Rain = 0
KGHS 170250Z 10011KT 27/12 A2994 RMK A01 T02660116  RH  041%=      5-min Rain = 0
KGHS 170255Z 10011G17KT 27/12 A2995 RMK A01 T02660116  RH  041%=      5-min Rain = 0
KGHS 170300Z 10012KT 27/12 A2995 RMK A01 T02650115  RH  041%=      5-min Rain = 0
KGHS 170305Z 10014KT 27/11 A2995 RMK A01 T02650113  RH  040%=      5-min Rain = 0
KGHS 170310Z 11012KT 26/11 A2995 RMK A01 T02640111  RH  040%=      5-min Rain = 0
KGHS 170315Z 11012KT 26/11 A2995 RMK A01 T02630109  RH  039%=      5-min Rain = 0
KGHS 170320Z 11011KT 26/11 A2996 RMK A01 T02620109  RH  039%=      5-min Rain = 0
KGHS 170325Z 11011KT 26/11 A2996 RMK A01 T02620108  RH  039%=      5-min Rain = 0
KGHS 170330Z 11013KT 26/11 A2996 RMK A01 T02620107  RH  039%=      5-min Rain = 0
KGHS 170335Z 12012KT 26/11 A2996 RMK A01 T02620106  RH  039%=      5-min Rain = 0
KGHS 170340Z 12011KT 26/11 A2997 RMK A01 T02600105  RH  039%=      5-min Rain = 0
KGHS 170345Z 12011KT 26/11 A2997 RMK A01 T02590105  RH  039%=      5-min Rain = 0
KGHS 170350Z 12010KT 26/10 A2997 RMK A01 T02580104  RH  039%=      5-min Rain = 0
KGHS 170355Z 12008KT 26/11 A2997 RMK A01 T02550105  RH  040%=      5-min Rain = 0
KGHS 170400Z 12010KT 25/10 A2997 RMK A01 T02540103  RH  040%=      5-min Rain = 0
KGHS 170405Z 12011KT 25/10 A2997 RMK A01 T02540103  RH  040%=      5-min Rain = 0
KGHS 170410Z 12011G16KT 25/10 A2997 RMK A01 T02540103  RH  040%=      5-min Rain = 0
KGHS 170415Z 13011KT 25/10 A2997 RMK A01 T02520103  RH  040%=      5-min Rain = 0
KGHS 170420Z 13012KT 25/10 A2998 RMK A01 T02520102  RH  040%=      5-min Rain = 0
KGHS 170425Z 13011G16KT 25/10 A2998 RMK A01 T02510103  RH  041%=      5-min Rain = 0
KGHS 170430Z 12010KT 25/10 A2998 RMK A01 T02490103  RH  041%=      5-min Rain = 0
KGHS 170435Z 12011G16KT 25/10 A2998 RMK A01 T02490103  RH  041%=      5-min Rain = 0
KGHS 170440Z 13011KT 25/10 A2998 RMK A01 T02480103  RH  041%=      5-min Rain = 0
KGHS 170445Z 12012KT 25/10 A2998 RMK A01 T02480103  RH  041%=      5-min Rain = 0
KGHS 170450Z 12012G17KT 25/10 A2997 RMK A01 T02490103  RH  041%=      5-min Rain = 0
KGHS 170455Z 12014G21KT 25/10 A2997 RMK A01 T02490102  RH  041%=      5-min Rain = 0

Page generated in 0.0091 seconds.